sensor_id;sensor_type;location;lat;lon;timestamp;pressure;altitude;pressure_sealevel;temperature;humidity
54194;BME280;40102;50.906;6.972;2024-03-08T00:00:09;101098.50;;;6.58;58.11
54194;BME280;40102;50.906;6.972;2024-03-08T00:02:36;101095.31;;;6.73;58.23
54194;BME280;40102;50.906;6.972;2024-03-08T00:05:09;101096.59;;;6.88;58.01
54194;BME280;40102;50.906;6.972;2024-03-08T00:07:35;101091.81;;;6.97;57.05
54194;BME280;40102;50.906;6.972;2024-03-08T00:10:02;101084.66;;;6.99;56.94
54194;BME280;40102;50.906;6.972;2024-03-08T00:12:28;101076.41;;;7.07;57.15
54194;BME280;40102;50.906;6.972;2024-03-08T00:14:54;101086.88;;;7.11;56.29
54194;BME280;40102;50.906;6.972;2024-03-08T00:17:21;101091.59;;;7.03;56.05
54194;BME280;40102;50.906;6.972;2024-03-08T00:19:48;101076.88;;;6.93;56.87
54194;BME280;40102;50.906;6.972;2024-03-08T00:22:15;101081.44;;;6.90;56.85
54194;BME280;40102;50.906;6.972;2024-03-08T00:24:42;101075.91;;;6.96;56.94
54194;BME280;40102;50.906;6.972;2024-03-08T00:27:07;101072.31;;;6.97;55.94
54194;BME280;40102;50.906;6.972;2024-03-08T00:29:35;101069.78;;;6.94;56.10
54194;BME280;40102;50.906;6.972;2024-03-08T00:32:01;101068.34;;;6.83;55.69
54194;BME280;40102;50.906;6.972;2024-03-08T00:34:26;101061.63;;;6.73;55.92
54194;BME280;40102;50.906;6.972;2024-03-08T00:36:55;101058.34;;;6.65;56.34
54194;BME280;40102;50.906;6.972;2024-03-08T00:39:20;101067.91;;;6.71;56.61
54194;BME280;40102;50.906;6.972;2024-03-08T00:41:47;101062.75;;;6.66;56.19
54194;BME280;40102;50.906;6.972;2024-03-08T00:44:13;101062.84;;;6.63;56.00
54194;BME280;40102;50.906;6.972;2024-03-08T00:46:38;101047.53;;;6.45;56.26
54194;BME280;40102;50.906;6.972;2024-03-08T00:49:03;101052.91;;;6.43;56.58
54194;BME280;40102;50.906;6.972;2024-03-08T00:51:29;101053.66;;;6.47;57.36
54194;BME280;40102;50.906;6.972;2024-03-08T00:53:55;101063.28;;;6.51;56.90
54194;BME280;40102;50.906;6.972;2024-03-08T00:56:20;101048.97;;;6.55;56.78
54194;BME280;40102;50.906;6.972;2024-03-08T00:58:45;101050.97;;;6.48;56.29
54194;BME280;40102;50.906;6.972;2024-03-08T01:01:13;101040.84;;;6.33;56.11
54194;BME280;40102;50.906;6.972;2024-03-08T01:03:42;101047.13;;;6.31;57.08
54194;BME280;40102;50.906;6.972;2024-03-08T01:06:08;101033.94;;;6.28;56.80
54194;BME280;40102;50.906;6.972;2024-03-08T01:08:33;101035.88;;;6.23;56.85
54194;BME280;40102;50.906;6.972;2024-03-08T01:10:58;101037.41;;;6.30;57.02
54194;BME280;40102;50.906;6.972;2024-03-08T01:13:24;101036.53;;;6.29;57.02
54194;BME280;40102;50.906;6.972;2024-03-08T01:15:49;101035.38;;;6.38;56.85
54194;BME280;40102;50.906;6.972;2024-03-08T01:18:14;101024.78;;;6.36;56.94
54194;BME280;40102;50.906;6.972;2024-03-08T01:20:40;101010.59;;;6.37;57.07
54194;BME280;40102;50.906;6.972;2024-03-08T01:23:06;101012.38;;;6.37;57.02
54194;BME280;40102;50.906;6.972;2024-03-08T01:25:35;101015.91;;;6.37;56.02
54194;BME280;40102;50.906;6.972;2024-03-08T01:28:00;101009.81;;;6.34;56.67
54194;BME280;40102;50.906;6.972;2024-03-08T01:30:25;101002.16;;;6.25;57.06
54194;BME280;40102;50.906;6.972;2024-03-08T01:32:51;100999.59;;;6.22;56.98
54194;BME280;40102;50.906;6.972;2024-03-08T01:35:16;101008.50;;;6.21;57.26
54194;BME280;40102;50.906;6.972;2024-03-08T01:37:41;101001.41;;;6.21;57.54
54194;BME280;40102;50.906;6.972;2024-03-08T01:40:07;100998.44;;;6.30;57.34
54194;BME280;40102;50.906;6.972;2024-03-08T01:42:34;100998.22;;;6.36;57.26
54194;BME280;40102;50.906;6.972;2024-03-08T01:45:04;100989.53;;;6.31;56.61
54194;BME280;40102;50.906;6.972;2024-03-08T01:47:29;100994.00;;;6.31;56.85
54194;BME280;40102;50.906;6.972;2024-03-08T01:49:58;100988.06;;;6.23;56.52
54194;BME280;40102;50.906;6.972;2024-03-08T01:52:25;100978.50;;;6.17;57.45
54194;BME280;40102;50.906;6.972;2024-03-08T01:54:51;100990.16;;;6.13;57.76
54194;BME280;40102;50.906;6.972;2024-03-08T01:57:17;100970.81;;;6.09;57.91
54194;BME280;40102;50.906;6.972;2024-03-08T01:59:42;100973.41;;;6.11;57.65
54194;BME280;40102;50.906;6.972;2024-03-08T02:02:10;100978.56;;;6.15;57.74
54194;BME280;40102;50.906;6.972;2024-03-08T02:04:36;100968.03;;;6.12;57.77
54194;BME280;40102;50.906;6.972;2024-03-08T02:07:03;100972.19;;;6.21;57.88
54194;BME280;40102;50.906;6.972;2024-03-08T02:09:30;100969.63;;;6.18;57.45
54194;BME280;40102;50.906;6.972;2024-03-08T02:11:56;100969.88;;;6.10;57.65
54194;BME280;40102;50.906;6.972;2024-03-08T02:14:22;100968.09;;;6.11;57.94
54194;BME280;40102;50.906;6.972;2024-03-08T02:16:47;100963.66;;;6.11;57.96
54194;BME280;40102;50.906;6.972;2024-03-08T02:19:13;100955.88;;;6.05;57.84
54194;BME280;40102;50.906;6.972;2024-03-08T02:21:38;100960.63;;;5.96;58.16
54194;BME280;40102;50.906;6.972;2024-03-08T02:24:04;100959.03;;;5.90;58.56
54194;BME280;40102;50.906;6.972;2024-03-08T02:26:31;100960.03;;;5.86;58.44
54194;BME280;40102;50.906;6.972;2024-03-08T02:28:56;100949.75;;;5.75;58.93
54194;BME280;40102;50.906;6.972;2024-03-08T02:31:21;100946.59;;;5.64;60.21
54194;BME280;40102;50.906;6.972;2024-03-08T02:33:47;100948.31;;;5.65;59.70
54194;BME280;40102;50.906;6.972;2024-03-08T02:36:14;100950.91;;;5.67;59.77
54194;BME280;40102;50.906;6.972;2024-03-08T02:38:41;100937.75;;;5.64;59.95
54194;BME280;40102;50.906;6.972;2024-03-08T02:41:06;100939.44;;;5.66;60.38
54194;BME280;40102;50.906;6.972;2024-03-08T02:43:32;100941.94;;;5.71;59.77
54194;BME280;40102;50.906;6.972;2024-03-08T02:45:58;100939.13;;;5.75;59.87
54194;BME280;40102;50.906;6.972;2024-03-08T02:48:24;100921.69;;;5.68;59.31
54194;BME280;40102;50.906;6.972;2024-03-08T02:50:51;100921.59;;;5.71;59.55
54194;BME280;40102;50.906;6.972;2024-03-08T02:53:16;100929.41;;;5.76;59.30
54194;BME280;40102;50.906;6.972;2024-03-08T02:55:44;100933.72;;;5.78;59.17
54194;BME280;40102;50.906;6.972;2024-03-08T02:58:09;100942.66;;;5.76;59.04
54194;BME280;40102;50.906;6.972;2024-03-08T03:00:36;100924.84;;;5.79;59.44
54194;BME280;40102;50.906;6.972;2024-03-08T03:03:01;100924.84;;;5.79;58.80
54194;BME280;40102;50.906;6.972;2024-03-08T03:05:28;100923.22;;;5.75;59.50
54194;BME280;40102;50.906;6.972;2024-03-08T03:07:55;100923.00;;;5.81;59.52
54194;BME280;40102;50.906;6.972;2024-03-08T03:10:20;100914.13;;;5.82;59.02
54194;BME280;40102;50.906;6.972;2024-03-08T03:12:47;100916.63;;;5.87;58.67
54194;BME280;40102;50.906;6.972;2024-03-08T03:15:14;100916.03;;;5.79;59.02
54194;BME280;40102;50.906;6.972;2024-03-08T03:17:40;100916.88;;;5.79;59.28
54194;BME280;40102;50.906;6.972;2024-03-08T03:20:08;100910.03;;;5.72;59.24
54194;BME280;40102;50.906;6.972;2024-03-08T03:22:39;100909.28;;;5.69;59.41
54194;BME280;40102;50.906;6.972;2024-03-08T03:25:06;100894.22;;;5.69;59.76
54194;BME280;40102;50.906;6.972;2024-03-08T03:27:32;100905.66;;;5.71;59.87
54194;BME280;40102;50.906;6.972;2024-03-08T03:29:58;100908.06;;;5.79;59.99
54194;BME280;40102;50.906;6.972;2024-03-08T03:32:44;100906.88;;;5.89;59.63
54194;BME280;40102;50.906;6.972;2024-03-08T03:35:12;100907.69;;;5.91;58.57
54194;BME280;40102;50.906;6.972;2024-03-08T03:37:37;100908.88;;;5.81;58.77
54194;BME280;40102;50.906;6.972;2024-03-08T03:40:05;100910.41;;;5.62;59.91
54194;BME280;40102;50.906;6.972;2024-03-08T03:42:30;100905.88;;;5.37;60.34
54194;BME280;40102;50.906;6.972;2024-03-08T03:44:56;100906.81;;;5.35;60.94
54194;BME280;40102;50.906;6.972;2024-03-08T03:47:21;100906.16;;;5.28;61.60
54194;BME280;40102;50.906;6.972;2024-03-08T03:49:47;100903.41;;;5.31;62.05
54194;BME280;40102;50.906;6.972;2024-03-08T03:52:12;100894.09;;;5.46;61.59
54194;BME280;40102;50.906;6.972;2024-03-08T03:54:37;100892.03;;;5.56;61.18
54194;BME280;40102;50.906;6.972;2024-03-08T03:57:03;100895.03;;;5.71;60.43
54194;BME280;40102;50.906;6.972;2024-03-08T03:59:29;100889.78;;;5.70;59.80
54194;BME280;40102;50.906;6.972;2024-03-08T04:01:54;100893.16;;;5.75;59.69
54194;BME280;40102;50.906;6.972;2024-03-08T04:04:22;100894.41;;;5.63;59.81
54194;BME280;40102;50.906;6.972;2024-03-08T04:06:49;100893.94;;;5.50;60.27
54194;BME280;40102;50.906;6.972;2024-03-08T04:09:16;100881.16;;;5.35;60.84
54194;BME280;40102;50.906;6.972;2024-03-08T04:11:44;100880.69;;;5.22;61.24
54194;BME280;40102;50.906;6.972;2024-03-08T04:14:09;100892.38;;;5.17;61.34
54194;BME280;40102;50.906;6.972;2024-03-08T04:16:35;100882.06;;;5.08;62.05
54194;BME280;40102;50.906;6.972;2024-03-08T04:19:00;100887.22;;;5.12;62.33
54194;BME280;40102;50.906;6.972;2024-03-08T04:21:30;100887.78;;;5.22;61.78
54194;BME280;40102;50.906;6.972;2024-03-08T04:23:55;100876.25;;;5.23;61.91
54194;BME280;40102;50.906;6.972;2024-03-08T04:26:21;100886.66;;;5.29;61.34
54194;BME280;40102;50.906;6.972;2024-03-08T04:28:47;100875.38;;;5.22;60.79
54194;BME280;40102;50.906;6.972;2024-03-08T04:31:12;100872.13;;;5.14;61.86
54194;BME280;40102;50.906;6.972;2024-03-08T04:33:37;100876.56;;;5.14;61.52
54194;BME280;40102;50.906;6.972;2024-03-08T04:36:04;100871.41;;;5.09;61.01
54194;BME280;40102;50.906;6.972;2024-03-08T04:38:29;100866.28;;;5.03;61.70
54194;BME280;40102;50.906;6.972;2024-03-08T04:40:56;100862.34;;;5.16;62.62
54194;BME280;40102;50.906;6.972;2024-03-08T04:43:22;100867.75;;;5.13;61.16
54194;BME280;40102;50.906;6.972;2024-03-08T04:45:50;100866.44;;;4.99;61.68
54194;BME280;40102;50.906;6.972;2024-03-08T04:48:16;100869.59;;;4.82;62.41
54194;BME280;40102;50.906;6.972;2024-03-08T04:50:41;100865.34;;;4.76;63.42
54194;BME280;40102;50.906;6.972;2024-03-08T04:53:06;100862.19;;;4.93;63.78
54194;BME280;40102;50.906;6.972;2024-03-08T04:55:34;100859.41;;;4.98;62.65
54194;BME280;40102;50.906;6.972;2024-03-08T04:57:59;100862.56;;;4.81;63.04
54194;BME280;40102;50.906;6.972;2024-03-08T05:00:24;100857.53;;;4.72;63.52
54194;BME280;40102;50.906;6.972;2024-03-08T05:02:50;100857.53;;;4.72;63.92
54194;BME280;40102;50.906;6.972;2024-03-08T05:05:18;100847.63;;;4.78;64.00
54194;BME280;40102;50.906;6.972;2024-03-08T05:07:44;100852.09;;;4.76;63.44
54194;BME280;40102;50.906;6.972;2024-03-08T05:10:10;100844.19;;;4.75;63.76
54194;BME280;40102;50.906;6.972;2024-03-08T05:12:36;100837.59;;;4.59;63.60
54194;BME280;40102;50.906;6.972;2024-03-08T05:15:04;100846.63;;;4.51;65.20
54194;BME280;40102;50.906;6.972;2024-03-08T05:17:30;100849.16;;;4.56;64.59
54194;BME280;40102;50.906;6.972;2024-03-08T05:19:55;100844.41;;;4.67;65.27
54194;BME280;40102;50.906;6.972;2024-03-08T05:22:21;100836.31;;;4.72;64.06
54194;BME280;40102;50.906;6.972;2024-03-08T05:24:46;100831.63;;;4.81;64.76
54194;BME280;40102;50.906;6.972;2024-03-08T05:27:12;100841.75;;;4.97;63.86
54194;BME280;40102;50.906;6.972;2024-03-08T05:29:38;100839.19;;;4.94;63.53
54194;BME280;40102;50.906;6.972;2024-03-08T05:32:03;100836.09;;;4.79;63.43
54194;BME280;40102;50.906;6.972;2024-03-08T05:34:29;100839.94;;;4.69;64.38
54194;BME280;40102;50.906;6.972;2024-03-08T05:36:54;100844.94;;;4.49;65.20
54194;BME280;40102;50.906;6.972;2024-03-08T05:39:20;100846.22;;;4.36;66.38
54194;BME280;40102;50.906;6.972;2024-03-08T05:41:46;100829.06;;;4.18;67.10
54194;BME280;40102;50.906;6.972;2024-03-08T05:44:11;100837.00;;;4.18;67.25
54194;BME280;40102;50.906;6.972;2024-03-08T05:46:37;100833.72;;;4.08;67.46
54194;BME280;40102;50.906;6.972;2024-03-08T05:49:03;100833.53;;;4.16;68.49
54194;BME280;40102;50.906;6.972;2024-03-08T05:51:32;100842.88;;;4.29;67.59
54194;BME280;40102;50.906;6.972;2024-03-08T05:54:01;100819.53;;;4.42;68.33
54194;BME280;40102;50.906;6.972;2024-03-08T05:56:28;100821.38;;;4.69;67.02
54194;BME280;40102;50.906;6.972;2024-03-08T05:58:54;100819.88;;;4.90;66.26
54194;BME280;40102;50.906;6.972;2024-03-08T06:01:19;100822.72;;;5.12;65.02
54194;BME280;40102;50.906;6.972;2024-03-08T06:03:45;100817.72;;;5.29;63.65
54194;BME280;40102;50.906;6.972;2024-03-08T06:06:16;100814.16;;;5.30;63.44
54194;BME280;40102;50.906;6.972;2024-03-08T06:08:43;100814.81;;;5.37;63.13
54194;BME280;40102;50.906;6.972;2024-03-08T06:11:09;100805.94;;;5.38;62.41
54194;BME280;40102;50.906;6.972;2024-03-08T06:13:35;100811.13;;;5.41;62.87
54194;BME280;40102;50.906;6.972;2024-03-08T06:16:01;100805.69;;;5.45;62.53
54194;BME280;40102;50.906;6.972;2024-03-08T06:18:30;100806.41;;;5.50;62.61
54194;BME280;40102;50.906;6.972;2024-03-08T06:20:55;100807.72;;;5.37;62.81
54194;BME280;40102;50.906;6.972;2024-03-08T06:23:20;100812.38;;;5.57;88.49
54194;BME280;40102;50.906;6.972;2024-03-08T06:25:46;100799.63;;;6.18;85.91
54194;BME280;40102;50.906;6.972;2024-03-08T06:28:12;100797.03;;;6.87;90.58
54194;BME280;40102;50.906;6.972;2024-03-08T06:30:39;100802.69;;;7.23;76.44
54194;BME280;40102;50.906;6.972;2024-03-08T06:33:04;100796.34;;;7.47;73.60
54194;BME280;40102;50.906;6.972;2024-03-08T06:35:30;100789.81;;;7.76;68.66
54194;BME280;40102;50.906;6.972;2024-03-08T06:37:57;100795.47;;;7.89;72.18
54194;BME280;40102;50.906;6.972;2024-03-08T06:40:22;100791.41;;;8.00;66.23
54194;BME280;40102;50.906;6.972;2024-03-08T06:42:48;100792.53;;;8.15;65.23
54194;BME280;40102;50.906;6.972;2024-03-08T06:45:13;100797.66;;;8.20;62.43
54194;BME280;40102;50.906;6.972;2024-03-08T06:47:44;100789.09;;;8.32;61.69
54194;BME280;40102;50.906;6.972;2024-03-08T06:50:09;100795.06;;;8.38;57.83
54194;BME280;40102;50.906;6.972;2024-03-08T06:52:34;100793.72;;;8.08;56.62
54194;BME280;40102;50.906;6.972;2024-03-08T06:55:00;100791.28;;;7.83;56.69
54194;BME280;40102;50.906;6.972;2024-03-08T06:57:26;100794.50;;;7.49;55.24
54194;BME280;40102;50.906;6.972;2024-03-08T06:59:52;100798.78;;;7.09;58.53
54194;BME280;40102;50.906;6.972;2024-03-08T07:02:17;100797.38;;;7.01;60.62
54194;BME280;40102;50.906;6.972;2024-03-08T07:04:42;100795.19;;;6.89;59.96
54194;BME280;40102;50.906;6.972;2024-03-08T07:07:08;100795.56;;;6.56;58.65
54194;BME280;40102;50.906;6.972;2024-03-08T07:09:35;100793.34;;;6.21;59.53
54194;BME280;40102;50.906;6.972;2024-03-08T07:12:01;100792.59;;;5.92;61.40
54194;BME280;40102;50.906;6.972;2024-03-08T07:14:27;100790.06;;;5.63;61.29
54194;BME280;40102;50.906;6.972;2024-03-08T07:16:52;100786.38;;;5.15;62.99
54194;BME280;40102;50.906;6.972;2024-03-08T07:19:17;100787.28;;;4.86;65.71
54194;BME280;40102;50.906;6.972;2024-03-08T07:21:44;100797.66;;;4.94;67.13
54194;BME280;40102;50.906;6.972;2024-03-08T07:24:10;100776.22;;;5.02;66.79
54194;BME280;40102;50.906;6.972;2024-03-08T07:26:41;100786.94;;;5.24;66.86
54194;BME280;40102;50.906;6.972;2024-03-08T07:29:07;100781.00;;;5.43;65.75
54194;BME280;40102;50.906;6.972;2024-03-08T07:31:35;100772.63;;;5.56;64.99
54194;BME280;40102;50.906;6.972;2024-03-08T07:34:15;100765.63;;;5.53;63.32
54194;BME280;40102;50.906;6.972;2024-03-08T07:36:41;100762.22;;;5.49;64.83
54194;BME280;40102;50.906;6.972;2024-03-08T07:39:07;100757.34;;;5.62;63.86
54194;BME280;40102;50.906;6.972;2024-03-08T07:41:37;100763.19;;;5.47;64.73
54194;BME280;40102;50.906;6.972;2024-03-08T07:44:02;100759.50;;;5.51;65.59
54194;BME280;40102;50.906;6.972;2024-03-08T07:46:29;100761.91;;;5.59;64.99
54194;BME280;40102;50.906;6.972;2024-03-08T07:48:54;100760.97;;;5.60;63.84
54194;BME280;40102;50.906;6.972;2024-03-08T07:51:19;100752.19;;;5.58;64.45
54194;BME280;40102;50.906;6.972;2024-03-08T07:53:45;100754.53;;;5.67;64.73
54194;BME280;40102;50.906;6.972;2024-03-08T07:56:11;100750.09;;;5.67;64.33
54194;BME280;40102;50.906;6.972;2024-03-08T07:58:38;100745.53;;;5.71;64.65
54194;BME280;40102;50.906;6.972;2024-03-08T08:01:06;100745.28;;;5.78;64.40
54194;BME280;40102;50.906;6.972;2024-03-08T08:03:31;100742.28;;;5.89;64.99
54194;BME280;40102;50.906;6.972;2024-03-08T08:05:56;100734.44;;;5.84;64.30
54194;BME280;40102;50.906;6.972;2024-03-08T08:08:22;100731.13;;;5.78;64.44
54194;BME280;40102;50.906;6.972;2024-03-08T08:10:47;100722.53;;;5.71;64.76
54194;BME280;40102;50.906;6.972;2024-03-08T08:13:12;100720.75;;;5.72;66.14
54194;BME280;40102;50.906;6.972;2024-03-08T08:15:38;100702.34;;;5.67;65.18
54194;BME280;40102;50.906;6.972;2024-03-08T08:18:03;100714.47;;;5.74;65.39
54194;BME280;40102;50.906;6.972;2024-03-08T08:20:30;100709.78;;;5.81;66.18
54194;BME280;40102;50.906;6.972;2024-03-08T08:22:56;100703.34;;;5.88;65.86
54194;BME280;40102;50.906;6.972;2024-03-08T08:25:24;100687.28;;;5.93;64.66
54194;BME280;40102;50.906;6.972;2024-03-08T08:27:50;100692.00;;;6.08;65.11
54194;BME280;40102;50.906;6.972;2024-03-08T08:30:18;100697.97;;;6.14;64.27
54194;BME280;40102;50.906;6.972;2024-03-08T08:32:43;100676.72;;;6.14;64.04
54194;BME280;40102;50.906;6.972;2024-03-08T08:35:09;100672.56;;;6.07;64.79
54194;BME280;40102;50.906;6.972;2024-03-08T08:37:35;100682.19;;;6.10;64.35
54194;BME280;40102;50.906;6.972;2024-03-08T08:40:03;100662.13;;;6.03;65.41
54194;BME280;40102;50.906;6.972;2024-03-08T08:42:36;100680.06;;;5.96;64.97
54194;BME280;40102;50.906;6.972;2024-03-08T08:45:03;100671.22;;;5.96;66.17
54194;BME280;40102;50.906;6.972;2024-03-08T08:47:28;100662.06;;;6.04;66.15
54194;BME280;40102;50.906;6.972;2024-03-08T08:49:53;100663.19;;;6.21;65.40
54194;BME280;40102;50.906;6.972;2024-03-08T08:52:19;100658.69;;;6.23;64.05
54194;BME280;40102;50.906;6.972;2024-03-08T08:54:44;100650.09;;;6.16;64.20
54194;BME280;40102;50.906;6.972;2024-03-08T08:57:10;100636.19;;;6.09;64.52
54194;BME280;40102;50.906;6.972;2024-03-08T08:59:38;100649.34;;;6.12;64.70
54194;BME280;40102;50.906;6.972;2024-03-08T09:02:06;100640.81;;;6.04;64.70
54194;BME280;40102;50.906;6.972;2024-03-08T09:04:34;100643.88;;;6.17;64.96
54194;BME280;40102;50.906;6.972;2024-03-08T09:07:00;100629.09;;;6.10;64.24
54194;BME280;40102;50.906;6.972;2024-03-08T09:09:26;100641.94;;;6.21;64.69
54194;BME280;40102;50.906;6.972;2024-03-08T09:11:52;100639.91;;;6.27;64.89
54194;BME280;40102;50.906;6.972;2024-03-08T09:14:17;100631.59;;;6.36;64.83
54194;BME280;40102;50.906;6.972;2024-03-08T09:16:43;100624.44;;;6.38;65.05
54194;BME280;40102;50.906;6.972;2024-03-08T09:19:08;100620.78;;;6.41;64.57
54194;BME280;40102;50.906;6.972;2024-03-08T09:21:36;100629.38;;;6.47;64.07
54194;BME280;40102;50.906;6.972;2024-03-08T09:24:02;100620.28;;;6.53;63.77
54194;BME280;40102;50.906;6.972;2024-03-08T09:26:27;100627.28;;;6.56;63.43
54194;BME280;40102;50.906;6.972;2024-03-08T09:28:53;100627.09;;;6.60;64.04
54194;BME280;40102;50.906;6.972;2024-03-08T09:31:20;100614.34;;;6.68;63.62
54194;BME280;40102;50.906;6.972;2024-03-08T09:33:46;100613.84;;;6.80;63.54
54194;BME280;40102;50.906;6.972;2024-03-08T09:36:12;100612.72;;;6.86;62.93
54194;BME280;40102;50.906;6.972;2024-03-08T09:38:39;100594.03;;;6.88;62.58
54194;BME280;40102;50.906;6.972;2024-03-08T09:41:05;100587.72;;;6.90;62.61
54194;BME280;40102;50.906;6.972;2024-03-08T09:43:31;100585.59;;;6.98;61.78
54194;BME280;40102;50.906;6.972;2024-03-08T09:45:57;100586.88;;;7.10;61.64
54194;BME280;40102;50.906;6.972;2024-03-08T09:48:27;100570.50;;;6.99;60.83
54194;BME280;40102;50.906;6.972;2024-03-08T09:50:54;100570.66;;;6.96;61.63
54194;BME280;40102;50.906;6.972;2024-03-08T09:53:20;100578.16;;;7.06;61.88
54194;BME280;40102;50.906;6.972;2024-03-08T09:55:47;100572.72;;;7.09;61.38
54194;BME280;40102;50.906;6.972;2024-03-08T09:58:15;100573.31;;;7.16;61.01
54194;BME280;40102;50.906;6.972;2024-03-08T10:00:53;100564.38;;;7.17;61.55
54194;BME280;40102;50.906;6.972;2024-03-08T10:03:19;100554.41;;;7.22;61.53
54194;BME280;40102;50.906;6.972;2024-03-08T10:05:45;100542.56;;;7.29;61.24
54194;BME280;40102;50.906;6.972;2024-03-08T10:08:10;100553.66;;;7.39;60.69
54194;BME280;40102;50.906;6.972;2024-03-08T10:10:37;100557.63;;;7.49;59.83
54194;BME280;40102;50.906;6.972;2024-03-08T10:13:09;100545.78;;;7.56;60.47
54194;BME280;40102;50.906;6.972;2024-03-08T10:15:39;100545.56;;;7.61;59.22
54194;BME280;40102;50.906;6.972;2024-03-08T10:18:05;100525.06;;;7.63;58.32
54194;BME280;40102;50.906;6.972;2024-03-08T10:20:31;100545.19;;;7.68;57.91
54194;BME280;40102;50.906;6.972;2024-03-08T10:23:03;100532.75;;;7.69;57.46
54194;BME280;40102;50.906;6.972;2024-03-08T10:25:30;100528.22;;;7.71;57.67
54194;BME280;40102;50.906;6.972;2024-03-08T10:27:58;100530.66;;;7.75;57.75
54194;BME280;40102;50.906;6.972;2024-03-08T10:30:24;100519.22;;;7.73;57.59
54194;BME280;40102;50.906;6.972;2024-03-08T10:32:49;100513.41;;;7.84;57.48
54194;BME280;40102;50.906;6.972;2024-03-08T10:35:15;100513.97;;;7.91;57.24
54194;BME280;40102;50.906;6.972;2024-03-08T10:37:46;100501.16;;;7.99;56.48
54194;BME280;40102;50.906;6.972;2024-03-08T10:40:20;100504.44;;;8.04;55.33
54194;BME280;40102;50.906;6.972;2024-03-08T10:43:05;100498.34;;;8.02;55.39
54194;BME280;40102;50.906;6.972;2024-03-08T10:45:40;100509.63;;;8.07;55.17
54194;BME280;40102;50.906;6.972;2024-03-08T10:48:30;100487.16;;;8.12;55.00
54194;BME280;40102;50.906;6.972;2024-03-08T10:50:59;100489.81;;;8.12;55.02
54194;BME280;40102;50.906;6.972;2024-03-08T10:53:27;100495.84;;;8.16;54.28
54194;BME280;40102;50.906;6.972;2024-03-08T10:55:56;100494.75;;;8.20;54.42
54194;BME280;40102;50.906;6.972;2024-03-08T10:58:23;100487.63;;;8.21;54.88
54194;BME280;40102;50.906;6.972;2024-03-08T11:00:52;100489.78;;;8.31;55.04
54194;BME280;40102;50.906;6.972;2024-03-08T11:06:07;100484.09;;;8.39;54.92
54194;BME280;40102;50.906;6.972;2024-03-08T11:08:36;100469.03;;;8.38;53.81
54194;BME280;40102;50.906;6.972;2024-03-08T11:11:02;100478.38;;;8.47;53.87
54194;BME280;40102;50.906;6.972;2024-03-08T11:13:41;100477.97;;;8.54;53.02
54194;BME280;40102;50.906;6.972;2024-03-08T11:16:36;100471.63;;;8.57;52.79
54194;BME280;40102;50.906;6.972;2024-03-08T11:21:36;100466.28;;;8.57;52.96
54194;BME280;40102;50.906;6.972;2024-03-08T11:24:12;100462.22;;;8.67;53.26
54194;BME280;40102;50.906;6.972;2024-03-08T11:26:39;100444.78;;;8.77;53.23
54194;BME280;40102;50.906;6.972;2024-03-08T11:32:16;100447.97;;;9.01;52.99
54194;BME280;40102;50.906;6.972;2024-03-08T11:34:45;100439.81;;;9.04;51.82
54194;BME280;40102;50.906;6.972;2024-03-08T11:37:13;100429.03;;;9.05;51.22
54194;BME280;40102;50.906;6.972;2024-03-08T11:39:41;100433.19;;;9.11;50.69
54194;BME280;40102;50.906;6.972;2024-03-08T11:42:11;100421.16;;;9.20;50.96
54194;BME280;40102;50.906;6.972;2024-03-08T11:44:37;100426.50;;;9.20;50.84
54194;BME280;40102;50.906;6.972;2024-03-08T11:47:02;100435.28;;;9.22;51.01
54194;BME280;40102;50.906;6.972;2024-03-08T11:49:31;100424.44;;;9.25;51.24
54194;BME280;40102;50.906;6.972;2024-03-08T11:51:56;100408.41;;;9.25;51.17
54194;BME280;40102;50.906;6.972;2024-03-08T11:54:22;100412.56;;;9.30;51.07
54194;BME280;40102;50.906;6.972;2024-03-08T11:56:51;100414.38;;;9.46;50.94
54194;BME280;40102;50.906;6.972;2024-03-08T11:59:17;100403.88;;;9.43;51.83
54194;BME280;40102;50.906;6.972;2024-03-08T12:01:43;100400.34;;;9.58;51.34
54194;BME280;40102;50.906;6.972;2024-03-08T12:04:15;100400.06;;;9.78;50.30
54194;BME280;40102;50.906;6.972;2024-03-08T12:06:50;100383.19;;;9.78;50.39
54194;BME280;40102;50.906;6.972;2024-03-08T12:09:16;100394.59;;;9.95;50.00
54194;BME280;40102;50.906;6.972;2024-03-08T12:11:41;100372.78;;;10.03;48.70
54194;BME280;40102;50.906;6.972;2024-03-08T12:14:09;100391.91;;;10.11;48.06
54194;BME280;40102;50.906;6.972;2024-03-08T12:16:36;100374.81;;;10.14;46.92
54194;BME280;40102;50.906;6.972;2024-03-08T12:19:05;100380.34;;;10.26;46.88
54194;BME280;40102;50.906;6.972;2024-03-08T12:21:31;100374.22;;;10.24;47.82
54194;BME280;40102;50.906;6.972;2024-03-08T12:24:06;100371.00;;;10.33;49.04
54194;BME280;40102;50.906;6.972;2024-03-08T12:26:37;100391.34;;;10.50;46.54
54194;BME280;40102;50.906;6.972;2024-03-08T12:29:24;100364.13;;;10.58;46.28
54194;BME280;40102;50.906;6.972;2024-03-08T12:31:54;100360.22;;;10.63;46.17
54194;BME280;40102;50.906;6.972;2024-03-08T12:34:20;100345.13;;;10.77;44.74
54194;BME280;40102;50.906;6.972;2024-03-08T12:36:50;100345.41;;;10.86;45.62
54194;BME280;40102;50.906;6.972;2024-03-08T12:39:20;100360.41;;;10.89;46.18
54194;BME280;40102;50.906;6.972;2024-03-08T12:41:55;100354.84;;;11.06;45.77
54194;BME280;40102;50.906;6.972;2024-03-08T12:44:22;100345.78;;;11.09;45.04
54194;BME280;40102;50.906;6.972;2024-03-08T12:46:48;100331.44;;;11.10;45.48
54194;BME280;40102;50.906;6.972;2024-03-08T12:49:14;100339.25;;;11.27;46.19
54194;BME280;40102;50.906;6.972;2024-03-08T12:51:45;100333.75;;;11.43;46.54
54194;BME280;40102;50.906;6.972;2024-03-08T12:54:11;100336.59;;;11.54;46.04
54194;BME280;40102;50.906;6.972;2024-03-08T12:56:37;100337.00;;;11.75;45.70
54194;BME280;40102;50.906;6.972;2024-03-08T12:59:04;100321.00;;;11.87;44.69
54194;BME280;40102;50.906;6.972;2024-03-08T13:01:31;100326.47;;;11.98;43.88
54194;BME280;40102;50.906;6.972;2024-03-08T13:04:00;100317.59;;;12.11;44.51
54194;BME280;40102;50.906;6.972;2024-03-08T13:06:27;100307.53;;;12.14;43.41